createdAt,value
2023-05-23T00:00:52.240Z,16.59
2023-05-23T00:03:25.550Z,16.53
2023-05-23T00:06:08.216Z,16.35
2023-05-23T00:08:44.438Z,16.23
2023-05-23T00:11:17.290Z,16.25
2023-05-23T00:13:46.551Z,16.31
2023-05-23T00:16:13.671Z,16.36
2023-05-23T00:18:45.764Z,16.54
2023-05-23T00:21:18.328Z,16.52
2023-05-23T00:23:45.447Z,16.50
2023-05-23T00:26:13.444Z,16.45
2023-05-23T00:28:45.949Z,16.41
2023-05-23T00:31:13.062Z,16.22
2023-05-23T00:33:40.164Z,16.02
2023-05-23T00:36:07.542Z,15.66
2023-05-23T00:38:37.770Z,15.43
2023-05-23T00:41:06.290Z,15.50
2023-05-23T00:43:33.452Z,15.49
2023-05-23T00:46:00.996Z,15.38
2023-05-23T00:48:29.389Z,15.34
2023-05-23T00:50:57.843Z,15.19
2023-05-23T00:53:25.690Z,15.16
2023-05-23T00:55:53.013Z,15.09
2023-05-23T00:58:20.558Z,15.09
2023-05-23T01:00:50.394Z,14.96
2023-05-23T01:03:18.524Z,14.87
2023-05-23T01:05:46.069Z,14.77
2023-05-23T01:08:15.633Z,14.71
2023-05-23T01:10:43.054Z,14.69
2023-05-23T01:13:20.648Z,14.76
2023-05-23T01:16:09.384Z,14.67
2023-05-23T01:18:59.258Z,14.54
2023-05-23T01:21:27.362Z,14.49
2023-05-23T01:24:22.177Z,14.45
2023-05-23T01:27:46.134Z,14.40
2023-05-23T01:30:13.689Z,14.45
2023-05-23T01:32:42.173Z,14.50
2023-05-23T01:35:11.016Z,14.53
2023-05-23T01:37:38.187Z,14.65
2023-05-23T01:40:05.965Z,14.75
2023-05-23T01:42:33.147Z,14.75
2023-05-23T01:45:00.568Z,14.75
2023-05-23T01:47:27.875Z,14.78
2023-05-23T01:49:57.067Z,14.80
2023-05-23T01:52:25.210Z,14.69
2023-05-23T01:54:53.130Z,14.61
2023-05-23T01:57:21.422Z,14.50
2023-05-23T01:59:50.406Z,14.61
2023-05-23T02:02:18.072Z,14.67
2023-05-23T02:04:45.458Z,14.60
2023-05-23T02:07:12.875Z,14.57
2023-05-23T02:09:40.138Z,14.48
2023-05-23T02:12:07.710Z,14.42
2023-05-23T02:14:34.933Z,14.40
2023-05-23T02:17:02.171Z,14.33
2023-05-23T02:19:30.237Z,14.30
2023-05-23T02:21:57.444Z,14.36
2023-05-23T02:24:24.981Z,14.41
2023-05-23T02:26:52.903Z,14.34
2023-05-23T02:29:20.079Z,14.37
2023-05-23T02:31:47.325Z,14.31
2023-05-23T02:34:16.197Z,14.36
2023-05-23T02:36:44.409Z,14.31
2023-05-23T02:39:11.570Z,14.30
2023-05-23T02:41:38.906Z,14.29
2023-05-23T02:44:06.444Z,14.30
2023-05-23T02:46:34.925Z,14.30
2023-05-23T02:57:53.691Z,14.09
2023-05-23T03:00:24.180Z,14.07
2023-05-23T03:03:02.090Z,14.04
2023-05-23T03:05:32.472Z,14.02
2023-05-23T03:08:00.411Z,14.00
2023-05-23T03:10:27.990Z,13.94
2023-05-23T03:12:56.019Z,13.98
2023-05-23T03:15:23.309Z,13.93
2023-05-23T03:17:50.909Z,13.89
2023-05-23T03:20:18.183Z,13.92
2023-05-23T03:22:45.911Z,14.01
2023-05-23T03:25:14.808Z,14.03
2023-05-23T03:27:41.983Z,14.00
2023-05-23T03:30:11.080Z,13.98
2023-05-23T03:32:40.647Z,14.10
2023-05-23T03:35:08.902Z,14.07
2023-05-23T03:37:36.142Z,14.03
2023-05-23T03:40:03.884Z,14.09
2023-05-23T03:42:33.927Z,14.07
2023-05-23T03:45:02.252Z,14.07
2023-05-23T03:47:29.574Z,14.05
2023-05-23T03:49:58.962Z,14.08
2023-05-23T03:52:27.769Z,14.15
2023-05-23T03:54:54.980Z,14.24
2023-05-23T03:57:22.985Z,14.24
2023-05-23T03:59:52.089Z,14.23
2023-05-23T04:02:20.696Z,14.28
2023-05-23T04:04:48.002Z,14.31
2023-05-23T04:07:16.301Z,14.33
2023-05-23T04:09:44.623Z,14.35
2023-05-23T04:12:13.524Z,14.42
2023-05-23T04:14:40.884Z,14.48
2023-05-23T04:17:09.243Z,14.54
2023-05-23T04:19:37.139Z,14.62
2023-05-23T04:22:07.667Z,14.56
2023-05-23T04:24:35.821Z,14.52
2023-05-23T04:27:03.150Z,14.50
2023-05-23T04:29:31.776Z,14.49
2023-05-23T04:32:25.403Z,14.44
2023-05-23T04:34:53.547Z,14.46
2023-05-23T04:37:26.717Z,14.49
2023-05-23T04:39:54.584Z,14.47
2023-05-23T04:42:31.315Z,14.45
2023-05-23T04:45:30.855Z,14.48
2023-05-23T04:48:04.499Z,14.48
2023-05-23T04:50:43.673Z,14.46
2023-05-23T04:53:11.033Z,14.46
2023-05-23T04:55:39.323Z,14.53
2023-05-23T04:58:13.074Z,14.56
2023-05-23T05:00:40.464Z,14.61
2023-05-23T05:03:09.917Z,14.63
2023-05-23T05:05:41.040Z,14.67
2023-05-23T05:08:08.200Z,14.67
2023-05-23T05:10:36.142Z,14.70
2023-05-23T05:13:03.249Z,14.76
2023-05-23T05:15:37.999Z,14.82
2023-05-23T05:18:05.279Z,14.85
2023-05-23T05:20:32.542Z,14.87
2023-05-23T05:23:02.911Z,14.84
2023-05-23T05:25:32.323Z,14.87
2023-05-23T05:28:05.953Z,14.89
2023-05-23T05:30:40.584Z,14.90
2023-05-23T05:33:08.227Z,14.94
2023-05-23T05:35:35.765Z,14.99
2023-05-23T05:38:05.041Z,15.05
2023-05-23T05:40:32.709Z,15.06
2023-05-23T05:43:00.731Z,15.17
2023-05-23T05:45:29.210Z,15.24
2023-05-23T05:47:56.834Z,15.36
2023-05-23T05:50:25.476Z,15.61
2023-05-23T05:52:52.887Z,16.05
2023-05-23T05:55:20.844Z,16.23
2023-05-23T05:57:52.416Z,16.42
2023-05-23T06:00:20.266Z,16.80
2023-05-23T06:02:47.825Z,17.09
2023-05-23T06:05:20.552Z,17.11
2023-05-23T06:07:49.951Z,16.90
2023-05-23T06:10:17.312Z,16.50
2023-05-23T06:12:45.945Z,16.14
2023-05-23T06:15:14.713Z,15.90
2023-05-23T06:17:43.012Z,15.90
2023-05-23T06:20:11.546Z,15.79
2023-05-23T06:22:42.709Z,15.62
2023-05-23T06:25:09.988Z,15.60
2023-05-23T06:27:38.186Z,15.54
2023-05-23T06:30:06.209Z,15.57
2023-05-23T06:32:33.734Z,15.59
2023-05-23T06:35:00.854Z,15.60
2023-05-23T06:37:27.950Z,15.60
2023-05-23T06:39:56.848Z,15.60
2023-05-23T06:42:23.943Z,15.49
2023-05-23T06:45:10.788Z,15.44
2023-05-23T06:47:38.439Z,15.44
2023-05-23T06:50:06.173Z,15.53
2023-05-23T06:52:33.854Z,15.89
2023-05-23T06:55:01.017Z,16.35
2023-05-23T06:57:28.158Z,16.29
2023-05-23T06:59:55.337Z,16.38
2023-05-23T07:02:22.945Z,16.38
2023-05-23T07:04:50.768Z,16.24
2023-05-23T07:07:33.702Z,16.34
2023-05-23T07:10:00.918Z,16.06
2023-05-23T07:12:28.103Z,16.10
2023-05-23T07:15:03.026Z,16.07
2023-05-23T07:17:32.784Z,16.01
2023-05-23T07:20:01.533Z,16.01
2023-05-23T07:22:29.534Z,15.97
2023-05-23T07:24:57.648Z,15.84
2023-05-23T07:27:29.992Z,15.62
2023-05-23T07:29:57.638Z,15.53
2023-05-23T07:32:24.890Z,15.68
2023-05-23T07:34:53.360Z,16.01
2023-05-23T07:37:20.503Z,16.19
2023-05-23T07:39:47.662Z,16.38
2023-05-23T07:42:14.900Z,16.43
2023-05-23T07:44:42.606Z,16.64
2023-05-23T07:47:10.869Z,16.77
2023-05-23T07:49:38.042Z,16.82
2023-05-23T07:52:07.056Z,16.85
2023-05-23T07:54:35.476Z,16.83
2023-05-23T07:57:04.116Z,16.87
2023-05-23T07:59:31.731Z,16.99
2023-05-23T08:01:59.616Z,16.95
2023-05-23T08:04:29.114Z,16.90
2023-05-23T08:09:30.854Z,16.77
2023-05-23T08:11:58.668Z,17.17
2023-05-23T08:14:34.553Z,17.19
2023-05-23T08:17:17.507Z,17.29
2023-05-23T08:19:51.989Z,17.31
2023-05-23T08:22:19.654Z,17.32
2023-05-23T08:24:46.917Z,17.37
2023-05-23T08:27:14.604Z,17.33
2023-05-23T08:29:42.935Z,17.54
2023-05-23T08:32:10.454Z,17.47
2023-05-23T08:34:37.650Z,17.27
2023-05-23T08:37:04.872Z,16.99
2023-05-23T08:39:32.197Z,17.17
2023-05-23T08:42:18.421Z,17.44
2023-05-23T08:44:51.310Z,17.74
2023-05-23T08:47:19.962Z,17.93
2023-05-23T08:49:55.077Z,17.81
2023-05-23T08:52:25.469Z,17.50
2023-05-23T08:54:55.386Z,17.55
2023-05-23T08:57:23.087Z,17.62
2023-05-23T08:59:56.414Z,17.84
2023-05-23T09:02:24.941Z,17.76
2023-05-23T09:04:56.262Z,17.58
2023-05-23T09:07:26.025Z,17.25
2023-05-23T09:09:53.816Z,17.03
2023-05-23T09:12:23.769Z,16.89
2023-05-23T09:14:51.095Z,16.62
2023-05-23T09:17:20.657Z,16.56
2023-05-23T09:19:48.468Z,16.58
2023-05-23T09:22:28.187Z,16.66
2023-05-23T09:25:05.510Z,16.59
2023-05-23T09:27:33.020Z,16.39
2023-05-23T09:30:05.832Z,16.24
2023-05-23T09:32:33.370Z,16.21
2023-05-23T09:35:04.215Z,16.20
2023-05-23T09:37:32.956Z,16.29
2023-05-23T09:40:01.817Z,16.42
2023-05-23T09:42:36.454Z,16.32
2023-05-23T09:45:04.944Z,16.19
2023-05-23T09:47:32.541Z,16.06
2023-05-23T09:49:59.724Z,15.98
2023-05-23T09:52:27.547Z,15.99
2023-05-23T09:54:54.781Z,16.10
2023-05-23T09:57:27.527Z,16.24
2023-05-23T10:00:01.185Z,16.10
2023-05-23T10:02:59.738Z,15.96
2023-05-23T10:05:42.417Z,15.85
2023-05-23T10:08:14.259Z,15.76
2023-05-23T10:10:56.723Z,15.65
2023-05-23T10:13:32.501Z,15.69
2023-05-23T10:16:15.077Z,15.78
2023-05-23T10:18:47.707Z,16.00
2023-05-23T10:21:25.854Z,15.97
2023-05-23T10:23:53.678Z,16.05
2023-05-23T10:26:22.054Z,16.27
2023-05-23T10:28:49.996Z,16.38
2023-05-23T10:31:17.863Z,17.10
2023-05-23T10:34:01.263Z,17.13
2023-05-23T10:36:37.364Z,16.78
2023-05-23T10:39:26.083Z,16.60
2023-05-23T10:41:59.001Z,16.44
2023-05-23T10:44:31.133Z,16.39
2023-05-23T10:47:03.210Z,16.21
2023-05-23T10:49:47.626Z,15.97
2023-05-23T10:52:17.553Z,15.92
2023-05-23T10:54:48.594Z,16.04
2023-05-23T10:57:34.072Z,16.29
2023-05-23T11:00:01.781Z,16.23
2023-05-23T11:02:29.498Z,16.38
2023-05-23T11:05:18.752Z,16.76
2023-05-23T11:07:46.357Z,17.19
2023-05-23T11:10:19.247Z,17.18
2023-05-23T11:12:46.391Z,17.23
2023-05-23T11:15:23.672Z,17.33
2023-05-23T11:17:52.454Z,16.99
2023-05-23T11:20:27.559Z,17.06
2023-05-23T11:23:05.498Z,16.80
2023-05-23T11:25:49.811Z,16.69
2023-05-23T11:28:22.491Z,16.66
2023-05-23T11:30:51.242Z,16.53
2023-05-23T11:33:20.913Z,16.39
2023-05-23T11:35:49.704Z,16.16
2023-05-23T11:38:17.446Z,16.01
2023-05-23T11:40:46.374Z,15.99
2023-05-23T11:43:19.874Z,16.29
2023-05-23T11:45:47.478Z,16.30
2023-05-23T11:48:18.263Z,16.45
2023-05-23T11:50:54.998Z,16.54
2023-05-23T11:53:25.320Z,16.55
2023-05-23T11:56:01.911Z,16.43
2023-05-23T11:58:33.170Z,16.24
2023-05-23T12:01:08.444Z,16.06
2023-05-23T12:03:52.008Z,15.95
2023-05-23T12:06:25.637Z,16.06
2023-05-23T12:08:52.970Z,16.14
2023-05-23T12:11:20.173Z,16.31
2023-05-23T12:13:47.338Z,16.47
2023-05-23T12:16:15.858Z,16.26
2023-05-23T12:18:43.550Z,16.10
2023-05-23T12:21:11.359Z,16.08
2023-05-23T12:23:39.759Z,15.94
2023-05-23T12:26:07.895Z,15.68
2023-05-23T12:28:45.082Z,15.53
2023-05-23T12:31:16.042Z,15.28
2023-05-23T12:33:48.205Z,15.13
2023-05-23T12:36:23.058Z,15.17
2023-05-23T12:38:53.773Z,15.25
2023-05-23T12:41:22.290Z,15.30
2023-05-23T12:43:54.915Z,15.34
2023-05-23T12:46:23.904Z,15.37
2023-05-23T12:48:51.854Z,15.47
2023-05-23T12:51:19.378Z,15.49
2023-05-23T12:53:46.863Z,15.51
2023-05-23T12:56:14.500Z,15.45
2023-05-23T12:58:41.948Z,15.39
2023-05-23T13:01:09.253Z,15.40
2023-05-23T13:03:36.641Z,15.45
2023-05-23T13:06:04.092Z,15.45
2023-05-23T13:08:31.271Z,15.48
2023-05-23T13:10:59.319Z,15.40
2023-05-23T13:13:27.032Z,15.31
2023-05-23T13:15:54.461Z,15.06
2023-05-23T13:18:21.748Z,14.92
2023-05-23T13:20:49.053Z,14.98
2023-05-23T13:23:16.563Z,15.02
2023-05-23T13:25:54.350Z,14.96
2023-05-23T13:28:21.960Z,15.02
2023-05-23T13:30:49.557Z,15.11
2023-05-23T13:33:17.093Z,15.26
2023-05-23T13:35:47.952Z,15.36
2023-05-23T13:38:17.500Z,15.55
2023-05-23T13:40:50.494Z,15.55
2023-05-23T13:43:18.602Z,15.30
2023-05-23T13:45:47.590Z,15.13
2023-05-23T13:48:17.354Z,15.03
2023-05-23T13:50:45.306Z,15.02
2023-05-23T13:53:15.103Z,15.04
2023-05-23T13:55:51.813Z,15.09
2023-05-23T13:58:19.007Z,15.16
2023-05-23T14:00:55.339Z,15.26
2023-05-23T14:03:22.651Z,15.38
2023-05-23T14:05:49.980Z,15.54
2023-05-23T14:08:18.921Z,15.54
2023-05-23T14:10:46.051Z,15.57
2023-05-23T14:13:17.223Z,15.62
2023-05-23T14:15:54.090Z,15.58
2023-05-23T14:18:21.226Z,15.49
2023-05-23T14:20:48.304Z,15.40
2023-05-23T14:23:20.524Z,15.25
2023-05-23T14:25:47.602Z,15.13
2023-05-23T14:28:15.009Z,14.99
2023-05-23T14:30:42.252Z,14.85
2023-05-23T14:33:11.029Z,14.62
2023-05-23T14:35:39.825Z,14.48
2023-05-23T14:38:10.167Z,14.21
2023-05-23T14:40:39.888Z,14.00
2023-05-23T14:43:10.223Z,13.92
2023-05-23T14:45:40.683Z,13.84
2023-05-23T14:48:09.850Z,13.93
2023-05-23T14:50:46.449Z,14.04
2023-05-23T14:53:17.209Z,14.05
2023-05-23T14:55:44.748Z,14.03
2023-05-23T14:58:11.942Z,13.95
2023-05-23T15:00:40.936Z,13.87
2023-05-23T15:03:08.904Z,13.82
2023-05-23T15:05:48.965Z,13.73
2023-05-23T15:08:28.963Z,13.59
2023-05-23T15:10:56.045Z,13.54
2023-05-23T15:13:24.330Z,13.51
2023-05-23T15:15:52.043Z,13.50
2023-05-23T15:18:38.842Z,13.58
2023-05-23T15:21:07.674Z,13.56
2023-05-23T15:23:34.830Z,13.57
2023-05-23T15:26:05.065Z,13.56
2023-05-23T15:28:33.740Z,13.53
2023-05-23T15:31:06.660Z,13.49
2023-05-23T15:33:36.900Z,13.36
2023-05-23T15:36:04.332Z,13.24
2023-05-23T15:38:32.848Z,13.10
2023-05-23T15:41:00.332Z,13.04
2023-05-23T15:43:27.461Z,13.05
2023-05-23T15:45:55.058Z,13.13
2023-05-23T15:48:28.206Z,13.12
2023-05-23T15:50:55.324Z,13.04
2023-05-23T15:53:22.467Z,12.98
2023-05-23T15:55:50.956Z,12.93
2023-05-23T15:58:18.184Z,12.71
2023-05-23T16:00:51.196Z,12.55
2023-05-23T16:03:19.003Z,12.47
2023-05-23T16:05:46.264Z,12.39
2023-05-23T16:08:13.473Z,12.30
2023-05-23T16:10:40.883Z,12.24
2023-05-23T16:13:09.188Z,12.18
2023-05-23T16:15:37.578Z,12.07
2023-05-23T16:18:05.034Z,12.05
2023-05-23T16:20:34.914Z,12.06
2023-05-23T16:23:02.276Z,11.99
2023-05-23T16:25:29.871Z,11.97
2023-05-23T16:27:57.487Z,11.91
2023-05-23T16:30:28.058Z,11.93
2023-05-23T16:32:55.378Z,11.89
2023-05-23T16:35:28.759Z,11.86
2023-05-23T16:37:56.449Z,11.85
2023-05-23T16:40:23.840Z,11.77
2023-05-23T16:42:51.052Z,11.83
2023-05-23T16:45:18.629Z,11.80
2023-05-23T16:47:45.912Z,11.84
2023-05-23T16:50:13.095Z,11.81
2023-05-23T16:52:40.505Z,11.76
2023-05-23T16:55:07.709Z,11.70
2023-05-23T16:57:34.822Z,11.68
2023-05-23T17:00:01.943Z,11.56
2023-05-23T17:02:29.082Z,11.50
2023-05-23T17:04:56.465Z,11.41
2023-05-23T17:07:23.591Z,11.29
2023-05-23T17:09:50.729Z,11.29
2023-05-23T17:12:17.847Z,11.25
2023-05-23T17:14:44.936Z,11.19
2023-05-23T17:17:12.007Z,11.16
2023-05-23T17:19:39.273Z,11.16
2023-05-23T17:22:07.795Z,11.15
2023-05-23T17:24:35.232Z,11.20
2023-05-23T17:27:04.534Z,11.07
2023-05-23T17:29:31.937Z,10.94
2023-05-23T17:31:59.315Z,10.80
2023-05-23T17:34:26.422Z,10.81
2023-05-23T17:36:53.551Z,10.67
2023-05-23T17:39:20.749Z,10.68
2023-05-23T17:41:48.021Z,10.68
2023-05-23T17:44:15.143Z,10.66
2023-05-23T17:46:42.438Z,10.55
2023-05-23T17:49:12.011Z,10.52
2023-05-23T17:51:39.213Z,10.49
2023-05-23T17:54:08.912Z,10.47
2023-05-23T17:56:36.189Z,10.49
2023-05-23T17:59:07.370Z,10.51
2023-05-23T18:01:34.545Z,10.50
2023-05-23T18:04:02.108Z,10.46
2023-05-23T18:06:29.277Z,10.42
2023-05-23T18:09:02.853Z,10.39
2023-05-23T18:11:30.411Z,10.35
2023-05-23T18:13:58.008Z,10.33
2023-05-23T18:16:25.365Z,10.27
2023-05-23T18:18:52.487Z,10.22
2023-05-23T18:21:19.788Z,10.19
2023-05-23T18:23:47.150Z,10.21
2023-05-23T18:26:17.452Z,10.21
2023-05-23T18:28:44.754Z,10.22
2023-05-23T18:31:11.896Z,10.19
2023-05-23T18:33:41.118Z,10.16
2023-05-23T18:36:12.975Z,10.13
2023-05-23T18:38:42.982Z,10.10
2023-05-23T18:41:13.919Z,10.08
2023-05-23T18:43:42.111Z,10.07
2023-05-23T18:46:09.699Z,9.99
2023-05-23T18:48:39.312Z,9.98
2023-05-23T18:51:09.280Z,9.93
2023-05-23T18:53:37.961Z,9.92
2023-05-23T18:56:08.769Z,9.89
2023-05-23T18:58:37.118Z,9.89
2023-05-23T19:01:04.384Z,9.88
2023-05-23T19:03:42.843Z,9.86
2023-05-23T19:06:12.589Z,9.84
2023-05-23T19:08:41.411Z,9.82
2023-05-23T19:11:10.848Z,9.80
2023-05-23T19:13:45.487Z,9.80
2023-05-23T19:16:13.753Z,9.77
2023-05-23T19:18:40.956Z,9.79
2023-05-23T19:21:08.532Z,9.74
2023-05-23T19:23:37.739Z,9.69
2023-05-23T19:26:13.862Z,9.65
2023-05-23T19:28:44.993Z,9.62
2023-05-23T19:31:15.256Z,9.58
2023-05-23T19:33:42.710Z,9.58
2023-05-23T19:36:09.859Z,9.55
2023-05-23T19:38:37.392Z,9.49
2023-05-23T19:41:05.329Z,9.48
2023-05-23T19:43:32.819Z,9.42
2023-05-23T19:46:00.241Z,9.46
2023-05-23T19:48:27.545Z,9.46
2023-05-23T19:50:55.293Z,9.46
2023-05-23T19:53:23.012Z,9.45
2023-05-23T19:55:50.480Z,9.42
2023-05-23T19:58:19.773Z,9.39
2023-05-23T20:00:46.900Z,9.39
2023-05-23T20:03:17.590Z,9.36
2023-05-23T20:05:45.929Z,9.38
2023-05-23T20:08:15.378Z,9.38
2023-05-23T20:10:44.873Z,9.39
2023-05-23T20:13:14.652Z,9.38
2023-05-23T20:15:42.552Z,9.40
2023-05-23T20:18:09.809Z,9.41
2023-05-23T20:20:36.959Z,9.43
2023-05-23T20:23:07.494Z,9.45
2023-05-23T20:25:35.087Z,9.47
2023-05-23T20:28:02.301Z,9.52
2023-05-23T20:30:29.468Z,9.55
2023-05-23T20:32:56.871Z,9.52
2023-05-23T20:35:24.163Z,9.52
2023-05-23T20:37:51.660Z,9.52
2023-05-23T20:40:19.373Z,9.54
2023-05-23T20:42:46.586Z,9.50
2023-05-23T20:45:13.934Z,9.50
2023-05-23T20:47:42.150Z,9.49
2023-05-23T20:50:10.672Z,9.45
2023-05-23T20:52:39.476Z,9.45
2023-05-23T20:55:07.555Z,9.46
2023-05-23T20:57:37.772Z,9.44
2023-05-23T21:00:12.606Z,9.42
2023-05-23T21:02:40.957Z,9.41
2023-05-23T21:05:09.631Z,9.41
2023-05-23T21:07:37.050Z,9.40
2023-05-23T21:10:04.663Z,9.35
2023-05-23T21:12:32.086Z,9.39
2023-05-23T21:14:59.301Z,9.35
2023-05-23T21:17:26.523Z,9.36
2023-05-23T21:19:53.761Z,9.33
2023-05-23T21:22:21.009Z,9.33
2023-05-23T21:24:48.353Z,9.33
2023-05-23T21:27:15.601Z,9.34
2023-05-23T21:29:43.110Z,9.30
2023-05-23T21:32:10.285Z,9.28
2023-05-23T21:34:37.363Z,9.27
2023-05-23T21:37:04.647Z,9.28
2023-05-23T21:39:47.029Z,9.28
2023-05-23T21:42:18.841Z,9.26
2023-05-23T21:44:46.205Z,9.26
2023-05-23T21:47:13.384Z,9.23
2023-05-23T21:49:40.809Z,9.24
2023-05-23T21:52:07.948Z,9.21
2023-05-23T21:54:35.178Z,9.19
2023-05-23T21:57:02.369Z,9.17
2023-05-23T21:59:29.516Z,9.15
2023-05-23T22:01:56.722Z,9.16
2023-05-23T22:04:23.962Z,9.14
2023-05-23T22:06:51.984Z,9.11
2023-05-23T22:09:19.285Z,9.07
2023-05-23T22:11:46.515Z,9.03
2023-05-23T22:14:13.605Z,9.06
2023-05-23T22:16:41.108Z,9.03
2023-05-23T22:19:10.349Z,9.00
2023-05-23T22:21:37.898Z,8.96
2023-05-23T22:24:05.374Z,8.96
2023-05-23T22:26:32.544Z,8.95
2023-05-23T22:28:59.610Z,8.91
2023-05-23T22:31:28.766Z,8.92
2023-05-23T22:33:56.454Z,8.88
2023-05-23T22:36:23.577Z,8.85
2023-05-23T22:38:50.828Z,8.83
2023-05-23T22:41:18.245Z,8.83
2023-05-23T22:43:45.685Z,8.82
2023-05-23T22:46:12.858Z,8.81
2023-05-23T22:48:39.958Z,8.78
2023-05-23T22:51:08.202Z,8.75
2023-05-23T22:53:35.357Z,8.72
2023-05-23T22:56:02.797Z,8.74
2023-05-23T22:58:29.958Z,8.73
2023-05-23T23:00:57.054Z,8.73
2023-05-23T23:03:24.278Z,8.69
2023-05-23T23:05:51.483Z,8.71
2023-05-23T23:08:19.502Z,8.72
2023-05-23T23:10:46.802Z,8.64
2023-05-23T23:13:14.458Z,8.60
2023-05-23T23:15:42.981Z,8.54
2023-05-23T23:18:13.764Z,8.60
2023-05-23T23:20:41.650Z,8.57
2023-05-23T23:23:09.565Z,8.50
2023-05-23T23:25:37.090Z,8.46
2023-05-23T23:28:04.410Z,8.45
2023-05-23T23:30:31.939Z,8.40
2023-05-23T23:32:59.143Z,8.39
2023-05-23T23:35:26.445Z,8.35
2023-05-23T23:37:53.669Z,8.35
2023-05-23T23:40:20.943Z,8.35
2023-05-23T23:42:48.609Z,8.31
2023-05-23T23:45:16.228Z,8.27
2023-05-23T23:47:43.698Z,8.27
2023-05-23T23:50:13.490Z,8.27
2023-05-23T23:52:44.414Z,8.26
2023-05-23T23:55:11.505Z,8.19
2023-05-23T23:57:38.580Z,8.16
